Angel Fire, New Mexico
Current Conditions -  °F | °C
As of 5:15 PM on Saturday 25 Oct 2014 (Local Time) from KAXX Reporting Station
Clear Clear  
Wind Chill: 19°   Ceiling: Unl
Heat Index: 19°   Visibility: 10mi
Dew Point: -14°   Wind: 18mph
Humidity: 10%   Direction: 270°W
Pressure: 30.33"   Gusts: NA
Location:  36.39°N, 105.29°W
Report Text: KAXX 252315Z AUTO 27016KT 10SM CLR 19/M14 A3033 RMK AO2 T01881137
Loading
Personal Weather Stations






























Interactive Weather Map
Tropical Storm Tracking
New forecast layout! Learn more

10-Day Weather Forecast

Advertisements
Track Severe Weather on mobile